Time;durP1;ratioP1;P1;durP2;ratioP2;P2;SDS_P1;SDS_P2;PMS_P1;PMS_P2;Temp;Humidity;BMP_temperature;BMP_pressure;BME280_temperature;BME280_humidity;BME280_pressure;Samples;Min_cycle;Max_cycle;Signal;HPM_P1;HPM_P2
2021/10/28 08:29:32;;;;;;;3.60;2.87;;;;;;;;;;5147664;22;20436;-48
2021/10/28 08:32:03;;;;;;;3.70;2.72;;;;;;;;;;5046085;28;20425;-48
2021/10/28 08:34:31;;;;;;;4.22;3.03;;;;;;;;;;5050203;28;20370;-48
2021/10/28 08:37:06;;;;;;;3.60;2.97;;;;;;;;;;5037227;28;20413;-49
2021/10/28 08:39:33;;;;;;;5.95;3.15;;;;;;;;;;5049096;28;20410;-49
2021/10/28 08:42:02;;;;;;;3.58;3.00;;;;;;;;;;5038683;28;20399;-47
2021/10/28 08:44:31;;;;;;;5.35;4.18;;;;;;;;;;5050015;28;20728;-48
2021/10/28 08:46:58;;;;;;;6.93;5.10;;;;;;;;;;5049679;28;20382;-48
2021/10/28 08:49:30;;;;;;;6.07;4.95;;;;;;;;;;5049457;28;20373;-47
2021/10/28 08:54:58;;;;;;;5.75;5.15;;;;;;;;;;5049278;28;20389;-48
2021/10/28 09:19:44;;;;;;;5.30;4.10;;;;;;;;;;5034135;28;20372;-48
2021/10/28 09:25:07;;;;;;;6.82;4.78;;;;;;;;;;5049240;28;20538;-51
2021/10/28 09:33:19;;;;;;;5.63;4.47;;;;;;;;;;5048487;28;20944;-52
2021/10/28 09:46:44;;;;;;;6.77;4.70;;;;;;;;;;5038660;28;20404;-55
2021/10/28 09:55:00;;;;;;;6.82;4.90;;;;;;;;;;5016751;28;20515;-50
2021/10/28 10:00:13;;;;;;;6.45;5.20;;;;;;;;;;5042248;28;20474;-55
2021/10/28 10:03:05;;;;;;;6.37;5.07;;;;;;;;;;5043726;28;20423;-53
2021/10/28 10:05:29;;;;;;;6.55;4.90;;;;;;;;;;5042213;28;20472;-50
2021/10/28 10:07:58;;;;;;;7.22;5.00;;;;;;;;;;5042673;28;20385;-54
2021/10/28 10:10:28;;;;;;;6.13;4.78;;;;;;;;;;5041299;28;20533;-50
2021/10/28 10:12:56;;;;;;;6.37;5.20;;;;;;;;;;5043417;28;20426;-51
2021/10/28 10:15:22;;;;;;;5.63;4.82;;;;;;;;;;5042542;28;20381;-55
2021/10/28 10:17:52;;;;;;;5.80;4.55;;;;;;;;;;5043077;28;20543;-49
2021/10/28 10:20:21;;;;;;;4.90;4.00;;;;;;;;;;5040540;28;20437;-48
2021/10/28 10:22:55;;;;;;;5.78;4.22;;;;;;;;;;5040168;28;20436;-49
2021/10/28 10:25:49;;;;;;;5.72;4.38;;;;;;;;;;5040605;28;20393;-51
2021/10/28 12:44:26;;;;;;;4.70;4.13;;;;;;;;;;5041756;28;20390;-47
2021/10/28 14:29:48;;;;;;;3.95;2.90;;;;;;;;;;5032656;28;20844;-48
2021/10/28 14:37:51;;;;;;;3.95;2.50;;;;;;;;;;5038644;28;20394;-48
2021/10/28 15:00:57;;;;;;;4.47;2.75;;;;;;;;;;5036057;28;20427;-47
2021/10/28 15:30:15;;;;;;;4.47;2.90;;;;;;;;;;5036521;28;20425;-48
2021/10/28 16:23:50;;;;;;;4.72;3.33;;;;;;;;;;5045339;28;20499;-47
2021/10/28 16:26:19;;;;;;;4.95;3.50;;;;;;;;;;5049440;28;20782;-50
2021/10/28 16:28:46;;;;;;;4.18;3.35;;;;;;;;;;5047509;28;20401;-52
2021/10/28 16:31:14;;;;;;;5.00;3.53;;;;;;;;;;5049353;28;20402;-50
2021/10/28 16:33:41;;;;;;;4.45;3.50;;;;;;;;;;5048431;28;20412;-50
2021/10/28 16:36:07;;;;;;;5.25;3.28;;;;;;;;;;5049636;28;20891;-52
2021/10/28 16:38:33;;;;;;;4.80;3.50;;;;;;;;;;5049674;28;20540;-53
2021/10/28 16:41:02;;;;;;;4.78;3.33;;;;;;;;;;5043037;28;20378;-52
2021/10/28 16:43:28;;;;;;;4.68;3.38;;;;;;;;;;5048638;28;20448;-53
2021/10/28 16:45:54;;;;;;;5.57;3.70;;;;;;;;;;5049357;28;20414;-51
2021/10/28 16:48:20;;;;;;;5.00;3.40;;;;;;;;;;5049584;28;20374;-49
2021/10/28 16:50:46;;;;;;;4.57;3.25;;;;;;;;;;5047270;28;20394;-50
2021/10/28 16:53:12;;;;;;;5.45;3.40;;;;;;;;;;5048839;28;20417;-49
2021/10/28 16:55:40;;;;;;;4.97;3.70;;;;;;;;;;5048393;28;20893;-47
2021/10/28 16:58:09;;;;;;;5.23;3.50;;;;;;;;;;5049187;28;20589;-48
2021/10/28 17:00:35;;;;;;;4.67;3.80;;;;;;;;;;5048630;28;20850;-49
2021/10/28 17:03:02;;;;;;;4.50;3.50;;;;;;;;;;5048697;28;20453;-50
2021/10/28 17:05:28;;;;;;;4.55;3.70;;;;;;;;;;5048939;28;20443;-48
2021/10/28 17:07:55;;;;;;;4.18;3.55;;;;;;;;;;5043004;28;20873;-47
2021/10/28 17:10:23;;;;;;;5.85;3.70;;;;;;;;;;5041424;28;20469;-48
2021/10/28 17:12:49;;;;;;;4.50;3.80;;;;;;;;;;5037530;28;20483;-49
2021/10/28 17:15:15;;;;;;;4.90;3.80;;;;;;;;;;5042170;28;20849;-49
2021/10/28 17:17:42;;;;;;;5.00;3.65;;;;;;;;;;5039447;28;20410;-47
2021/10/28 17:20:08;;;;;;;4.40;3.38;;;;;;;;;;5041715;28;20386;-48
2021/10/28 17:22:35;;;;;;;4.72;3.50;;;;;;;;;;5047765;28;20762;-49
2021/10/28 17:25:04;;;;;;;4.77;4.00;;;;;;;;;;5049307;28;20464;-52
2021/10/28 17:27:30;;;;;;;4.75;3.85;;;;;;;;;;5049020;28;20432;-52
2021/10/28 17:29:57;;;;;;;5.63;4.00;;;;;;;;;;5047991;28;20420;-56
2021/10/28 17:32:23;;;;;;;5.80;4.07;;;;;;;;;;5044328;28;20436;-50
2021/10/28 17:34:49;;;;;;;4.68;3.72;;;;;;;;;;5047472;28;21025;-51
2021/10/28 17:37:17;;;;;;;4.90;3.50;;;;;;;;;;5045312;28;20398;-50
2021/10/28 17:39:44;;;;;;;4.85;3.65;;;;;;;;;;5038723;28;20388;-52
2021/10/28 17:42:12;;;;;;;5.60;3.80;;;;;;;;;;5044142;28;20389;-52
2021/10/28 17:44:43;;;;;;;5.25;3.70;;;;;;;;;;5048673;28;20378;-52
2021/10/28 17:47:11;;;;;;;5.28;3.50;;;;;;;;;;5037192;28;20391;-52
2021/10/28 17:49:38;;;;;;;5.05;3.60;;;;;;;;;;5044769;28;20826;-53
2021/10/28 17:52:05;;;;;;;4.20;3.60;;;;;;;;;;5047827;28;20490;-49
2021/10/28 17:54:31;;;;;;;4.82;3.65;;;;;;;;;;5047989;28;20390;-48
2021/10/28 17:56:57;;;;;;;5.03;3.60;;;;;;;;;;5047909;28;20392;-50
2021/10/28 17:59:23;;;;;;;5.50;3.80;;;;;;;;;;5048274;28;20381;-49
2021/10/28 18:01:53;;;;;;;4.88;4.05;;;;;;;;;;5047463;28;20381;-49
2021/10/28 18:04:19;;;;;;;4.85;3.75;;;;;;;;;;5048061;28;20389;-51
2021/10/28 18:06:46;;;;;;;4.28;3.88;;;;;;;;;;5048055;28;20503;-50
2021/10/28 18:09:12;;;;;;;4.50;3.55;;;;;;;;;;5047603;28;20892;-49
2021/10/28 18:11:38;;;;;;;4.97;3.93;;;;;;;;;;5046969;28;20471;-52
2021/10/28 18:14:17;;;;;;;5.15;4.00;;;;;;;;;;5050342;28;20378;-51
2021/10/28 18:16:43;;;;;;;5.40;4.03;;;;;;;;;;5049440;28;20454;-49
2021/10/28 18:19:12;;;;;;;4.82;4.13;;;;;;;;;;5046895;28;20389;-52
2021/10/28 18:21:42;;;;;;;5.05;3.97;;;;;;;;;;5047670;28;20413;-51
2021/10/28 18:24:08;;;;;;;4.90;3.85;;;;;;;;;;5048024;28;20385;-49
2021/10/28 18:26:37;;;;;;;5.88;4.32;;;;;;;;;;5048041;28;20443;-49
2021/10/28 18:29:05;;;;;;;7.03;4.90;;;;;;;;;;5046316;28;20521;-49
2021/10/28 18:31:31;;;;;;;7.07;4.67;;;;;;;;;;5048067;28;20548;-48
2021/10/28 18:34:00;;;;;;;6.78;4.75;;;;;;;;;;5047914;28;20751;-50
2021/10/28 18:36:27;;;;;;;6.47;4.70;;;;;;;;;;5047738;28;20423;-49
2021/10/28 18:38:54;;;;;;;5.75;4.57;;;;;;;;;;5032571;28;20376;-48
2021/10/28 18:41:26;;;;;;;7.60;4.47;;;;;;;;;;5039328;28;20454;-48
2021/10/28 18:43:52;;;;;;;6.00;4.95;;;;;;;;;;5046898;28;20428;-48
2021/10/28 18:46:21;;;;;;;6.68;4.47;;;;;;;;;;5046983;28;20481;-48
2021/10/28 18:48:49;;;;;;;6.20;4.85;;;;;;;;;;5046921;28;20434;-48
2021/10/28 18:51:22;;;;;;;5.45;4.53;;;;;;;;;;5046562;28;20460;-49
2021/10/28 18:53:51;;;;;;;6.85;4.75;;;;;;;;;;5037836;28;20441;-47
2021/10/28 18:56:18;;;;;;;5.88;4.80;;;;;;;;;;5045890;28;20483;-48
2021/10/28 18:58:45;;;;;;;7.88;4.68;;;;;;;;;;5045633;28;20393;-48
2021/10/28 19:01:14;;;;;;;6.43;4.88;;;;;;;;;;5046475;28;20735;-46
2021/10/28 19:03:44;;;;;;;6.82;4.70;;;;;;;;;;5043570;28;21050;-50
2021/10/28 19:06:16;;;;;;;5.28;4.68;;;;;;;;;;5043558;28;20375;-47
2021/10/28 19:08:52;;;;;;;5.88;4.80;;;;;;;;;;5043543;28;20389;-47
2021/10/28 19:11:24;;;;;;;6.07;4.43;;;;;;;;;;5045498;28;20765;-49
2021/10/28 19:14:19;;;;;;;5.22;4.68;;;;;;;;;;5046628;28;20409;-48
2021/10/28 19:16:50;;;;;;;6.75;4.85;;;;;;;;;;5041607;28;20389;-49
2021/10/28 19:19:16;;;;;;;6.00;5.13;;;;;;;;;;5041376;28;20393;-49
2021/10/28 19:21:48;;;;;;;7.30;4.85;;;;;;;;;;5041148;28;20445;-49
2021/10/28 19:27:20;;;;;;;7.22;5.13;;;;;;;;;;5024997;28;20426;-51
2021/10/28 19:30:05;;;;;;;6.20;5.32;;;;;;;;;;5036357;28;20410;-47
2021/10/28 19:32:36;;;;;;;6.75;5.45;;;;;;;;;;5042772;28;20808;-47
2021/10/28 19:35:04;;;;;;;7.22;5.60;;;;;;;;;;5041754;28;20878;-46
2021/10/28 19:37:42;;;;;;;6.30;4.38;;;;;;;;;;5050045;28;20384;-47
2021/10/28 19:47:45;;;;;;;5.80;4.18;;;;;;;;;;5051626;28;20377;-48
2021/10/28 19:50:12;;;;;;;6.10;4.20;;;;;;;;;;5046740;28;20475;-48
2021/10/28 19:52:41;;;;;;;6.53;4.40;;;;;;;;;;5040904;28;20460;-47
2021/10/28 19:55:08;;;;;;;7.00;4.32;;;;;;;;;;5050382;28;20385;-48
2021/10/28 19:57:40;;;;;;;8.98;4.32;;;;;;;;;;5048621;28;20476;-47
2021/10/28 20:00:17;;;;;;;5.93;4.40;;;;;;;;;;5038725;28;20401;-48
2021/10/28 20:05:36;;;;;;;7.35;4.53;;;;;;;;;;5046838;28;20541;-51
2021/10/28 20:21:29;;;;;;;7.67;4.10;;;;;;;;;;5047749;28;20408;-50
2021/10/28 20:23:56;;;;;;;7.25;3.88;;;;;;;;;;5050346;28;20384;-47
2021/10/28 20:26:25;;;;;;;5.93;3.75;;;;;;;;;;5050538;28;20441;-48
2021/10/28 20:28:53;;;;;;;7.77;3.87;;;;;;;;;;5050128;28;20421;-54
2021/10/28 20:31:21;;;;;;;6.22;3.88;;;;;;;;;;5048542;28;20397;-49
2021/10/28 20:34:15;;;;;;;6.97;4.00;;;;;;;;;;5049910;28;20405;-48
2021/10/28 20:39:22;;;;;;;6.65;3.80;;;;;;;;;;5031569;28;20851;-51
2021/10/28 20:41:48;;;;;;;6.25;3.50;;;;;;;;;;5029508;28;20809;-50
2021/10/28 20:44:15;;;;;;;6.22;3.80;;;;;;;;;;5028276;28;20391;-48
2021/10/28 20:46:42;;;;;;;6.00;3.85;;;;;;;;;;5049141;28;20432;-48
2021/10/28 20:49:08;;;;;;;5.63;3.65;;;;;;;;;;5041599;28;20463;-49
2021/10/28 20:51:35;;;;;;;6.40;3.67;;;;;;;;;;5030747;28;20416;-49
2021/10/28 20:54:04;;;;;;;5.38;3.58;;;;;;;;;;5038580;28;20726;-49
2021/10/28 20:56:37;;;;;;;5.53;3.67;;;;;;;;;;5044859;28;20417;-47
2021/10/28 20:59:04;;;;;;;5.10;3.58;;;;;;;;;;5048842;28;20433;-47
2021/10/28 21:01:30;;;;;;;6.45;3.60;;;;;;;;;;5047434;28;20420;-47
2021/10/28 21:03:56;;;;;;;5.80;3.60;;;;;;;;;;5047211;28;20394;-49
2021/10/28 21:06:23;;;;;;;5.43;3.90;;;;;;;;;;5042175;28;20392;-49
2021/10/28 21:08:49;;;;;;;4.72;3.45;;;;;;;;;;5040685;28;20424;-49
2021/10/28 21:11:15;;;;;;;5.03;3.40;;;;;;;;;;5043661;28;20474;-48
2021/10/28 21:13:42;;;;;;;5.40;3.60;;;;;;;;;;5040823;28;20430;-47
2021/10/28 21:16:08;;;;;;;7.85;3.63;;;;;;;;;;5041351;28;20385;-50
2021/10/28 21:18:34;;;;;;;5.93;3.40;;;;;;;;;;5045689;28;20455;-47
2021/10/28 21:21:02;;;;;;;5.55;3.47;;;;;;;;;;5047828;28;20471;-50
2021/10/28 21:23:28;;;;;;;4.68;3.30;;;;;;;;;;5034566;28;20804;-48
2021/10/28 21:25:54;;;;;;;5.85;3.55;;;;;;;;;;5047725;28;20404;-50
2021/10/28 21:28:25;;;;;;;5.17;3.50;;;;;;;;;;5042396;28;20413;-49
2021/10/28 21:30:54;;;;;;;4.97;3.60;;;;;;;;;;5046487;28;20440;-50
2021/10/28 21:33:20;;;;;;;5.40;3.60;;;;;;;;;;5047473;28;20780;-50
2021/10/28 21:35:46;;;;;;;5.85;3.63;;;;;;;;;;5047177;28;20842;-49
